Latest Weather Observations for Longreach

IDQ60801

Issued at 5:32 am EST Thursday 25 August 2016 (issued every 30 minutes, with the page automatically refreshed every 10 minutes)

About weather observations | Map of weather stations | Latest weather observations for QLD | Other Formats
Station Details ID: 036031 Name: LONGREACH AERO Lat: -23.44 Lon: 144.28 Height: 192.2 m
Data from the previous 72 hours. | See also: Recent months at Longreach
Date/Time
EST
Temp
°C
App
Temp
°C
Dew
Point
°C
Rel
Hum
%
Delta-T
°C
Wind Press
QNH
hPa
Press
MSL
hPa
Rain since
9am
mm
Dir  Spd
km/h
Gust
km/h
Spd
kts
Gust
kts
25/05:30am 9.6 7.4 9.2 97 0.2 SW 11 13 6 7 1015.7 1015.3 0.0
25/05:00am 9.8 7.6 9.4 97 0.2 SSW 11 13 6 7 1015.4 1015.0 0.0
25/04:30am 10.0 7.9 9.6 97 0.2 SSW 11 15 6 8 1015.1 1014.7 0.0
25/04:00am 10.0 7.9 9.6 97 0.2 SSW 11 13 6 7 1014.8 1014.5 0.0
25/03:30am 10.5 8.9 10.1 97 0.2 SSW 9 11 5 6 1014.7 1014.4 0.0
25/03:00am 10.7 8.7 10.3 97 0.2 SW 11 13 6 7 1014.9 1014.6 0.0
25/02:30am 11.2 10.1 10.6 96 0.3 SW 7 9 4 5 1015.1 1014.7 0.0
25/02:00am 11.7 10.3 10.9 95 0.4 SW 9 11 5 6 1015.3 1014.9 0.0
25/01:30am 12.1 10.3 11.0 93 0.6 SW 11 15 6 8 1015.3 1014.9 0.0
25/01:00am 12.5 10.4 11.2 92 0.7 SSW 13 17 7 9 1015.3 1014.9 0.0
25/12:30am 12.6 10.5 11.3 92 0.7 SSW 13 15 7 8 1015.4 1015.0 0.0
25/12:00am 12.8 11.3 11.9 94 0.5 SW 11 13 6 7 1015.3 1014.9 0.0
 
Date/Time
EST
Temp
°C
App
Temp
°C
Dew
Point
°C
Rel
Hum
%
Delta-T
°C
Wind Press
QNH
hPa
Press
MSL
hPa
Rain since
9am
mm
Dir  Spd
km/h
Gust
km/h
Spd
kts
Gust
kts
24/11:30pm 13.1 11.6 12.0 93 0.6 SSW 11 13 6 7 1015.3 1014.9 0.0
24/11:00pm 13.9 12.1 12.1 89 1.0 SSW 13 17 7 9 1015.3 1014.9 0.0
24/10:30pm 14.3 12.2 12.3 88 1.1 SW 15 19 8 10 1014.9 1014.6 0.0
24/10:00pm 14.7 12.7 12.7 88 1.1 SW 15 19 8 10 1014.4 1014.1 0.0
24/09:30pm 15.6 12.8 12.5 82 1.7 SW 19 26 10 14 1014.2 1013.9 0.0
24/09:00pm 15.8 13.9 12.9 83 1.6 SW 15 22 8 12 1014.3 1014.0 0.0
24/08:30pm 15.7 14.1 12.8 83 1.6 SW 13 15 7 8 1014.0 1013.7 0.0
24/08:00pm 16.2 15.5 13.2 82 1.7 SW 9 11 5 6 1013.7 1013.4 0.0
24/07:30pm 16.9 15.5 13.4 80 2.0 SW 13 17 7 9 1013.3 1012.9 0.0
24/07:00pm 17.6 17.0 13.6 77 2.3 SW 9 11 5 6 1013.0 1012.6 0.0
24/06:30pm 18.3 17.1 12.8 70 3.1 SSW 11 13 6 7 1012.4 1012.0 0.0
24/06:00pm 18.6 16.6 12.8 69 3.3 SSW 15 19 8 10 1012.4 1012.0 0.0
24/05:30pm 19.0 18.1 13.8 72 3.0 SW 11 15 6 8 1012.3 1011.9 0.0
24/05:00pm 19.4 16.8 13.3 68 3.5 SSW 19 28 10 15 1011.3 1010.9 0.0
24/04:30pm 19.8 17.1 13.6 67 3.6 SSW 20 30 11 16 1011.0 1010.6 0.0
24/04:00pm 19.6 17.3 13.1 66 3.7 WSW 17 26 9 14 1010.6 1010.2 0.0
24/03:30pm 19.5 17.4 14.7 74 2.8 SW 19 28 10 15 1010.4 1010.0 0.0
24/03:24pm 18.8 16.6 14.5 76 2.5 SW 19 28 10 15 1010.4 1010.0 0.0
24/03:07pm 18.4 15.5 15.0 80 2.0 SW 24 33 13 18 1010.2 1009.8 0.0
24/03:00pm 18.0 14.6 14.8 81 1.9 SSW 26 35 14 19 1010.2 1009.8 0.0
24/02:30pm 18.2 15.5 15.7 85 1.5 SW 24 30 13 16 1010.3 1009.9 0.0
24/02:00pm 18.1 15.8 15.8 86 1.4 SW 22 30 12 16 1010.6 1010.2 0.0
24/01:30pm 18.9 16.4 16.2 84 1.6 WSW 24 30 13 16 1010.9 1010.5 0.0
24/01:00pm 18.7 16.6 16.2 85 1.5 WSW 22 30 12 16 1011.0 1010.6 0.0
24/12:30pm 18.3 16.7 16.1 87 1.3 SW 19 24 10 13 1011.4 1011.0 0.0
24/12:00pm 18.2 16.6 16.5 90 1.0 SW 20 26 11 14 1011.6 1011.2 0.0
24/11:30am 16.9 15.1 16.1 95 0.5 SW 20 26 11 14 1011.9 1011.5 0.0
24/11:00am 16.9 15.7 16.2 96 0.4 WSW 17 22 9 12 1012.1 1011.7 0.0
24/10:30am 17.3 16.6 16.5 95 0.5 WSW 15 19 8 10 1012.1 1011.7 0.0
24/10:00am 17.2 16.1 16.4 95 0.5 WSW 17 20 9 11 1012.4 1012.0 0.0
24/09:30am 18.8 18.0 17.2 90 1.0 WNW 17 24 9 13 1012.3 1011.9 0.0
24/09:11am 18.9 18.3 17.6 92 0.8 WNW 17 20 9 11 1012.0 1011.6 0.0
24/09:00am 18.9 18.7 17.6 92 0.8 NW 15 19 8 10 1011.6 1011.2 26.4
24/08:30am 18.5 18.2 17.4 93 0.7 WNW 15 19 8 10 1011.4 1011.0 26.4
24/08:00am 18.0 18.4 17.3 96 0.4 NNW 11 15 6 8 1011.1 1010.7 26.4
24/07:30am 17.7 18.5 17.4 98 0.2 NW 9 11 5 6 1010.3 1009.9 26.2
24/07:00am 17.7 18.5 17.2 97 0.3 N 9 11 5 6 1010.0 1009.6 26.2
24/06:58am 17.7 18.5 17.2 97 0.3 NNW 9 13 5 7 1010.0 1009.6 26.2
24/06:30am 17.9 16.7 17.4 97 0.3 N 20 30 11 16 1009.9 1009.5 26.2
24/06:25am 18.0 16.8 17.5 97 0.3 N 20 30 11 16 1009.7 1009.3 26.2
24/06:00am 17.7 17.1 17.5 99 0.1 N 17 20 9 11 1008.8 1008.4 26.2
24/05:30am 17.7 17.8 17.5 99 0.1 NNE 13 17 7 9 1008.5 1008.1 25.8
24/05:00am 17.7 17.8 17.5 99 0.1 N 13 15 7 8 1008.5 1008.1 24.4
24/04:58am 17.7 17.8 17.5 99 0.1 N 13 15 7 8 1008.6 1008.2 24.0
24/04:30am 17.7 18.3 17.7 100 0.0 N 11 13 6 7 1008.3 1007.9 22.6
24/04:27am 17.8 18.4 17.6 99 0.1 N 11 13 6 7 1008.4 1008.0 22.6
24/04:20am 17.8 18.7 17.6 99 0.1 N 9 11 5 6 1008.5 1008.1 22.2
24/04:09am 17.9 18.5 17.6 98 0.2 N 11 15 6 8 1008.2 1007.8 21.6
24/04:00am 17.9 18.9 17.7 99 0.1 N 9 11 5 6 1008.1 1007.7 20.8
24/03:49am 17.9 18.9 17.7 99 0.1 N 9 11 5 6 1008.6 1008.2 19.2
24/03:36am 17.9 19.2 17.6 98 0.2 NE 7 9 4 5 1008.1 1007.7 18.4
24/03:30am 17.9 19.4 17.7 99 0.1 E 6 9 3 5 1008.1 1007.7 18.4
24/03:07am 17.9 20.6 17.7 99 0.1 CALM 0 4 0 2 1008.5 1008.1 17.2
24/03:00am 17.9 19.8 17.7 99 0.1 NW 4 7 2 4 1008.6 1008.2 16.8
24/02:30am 17.9 19.4 17.7 99 0.1 N 6 7 3 4 1008.7 1008.3 16.6
24/02:00am 18.0 19.0 17.8 99 0.1 NW 9 11 5 6 1009.1 1008.8 16.4
24/01:30am 18.1 19.5 17.9 99 0.1 NNW 7 11 4 6 1008.9 1008.6 15.2
24/01:00am 18.0 19.4 17.8 99 0.1 N 7 9 4 5 1008.5 1008.1 15.2
24/12:44am 18.0 19.4 17.7 98 0.2 NNW 7 9 4 5 1008.9 1008.6 14.8
24/12:30am 18.0 19.0 17.7 98 0.2 NNW 9 11 5 6 1009.2 1008.9 14.8
24/12:21am 17.9 18.9 17.7 99 0.1 NNW 9 11 5 6 1009.1 1008.8 14.8
24/12:00am 17.8 18.7 17.5 98 0.2 N 9 13 5 7 1009.4 1009.1 14.0
 
Date/Time
EST
Temp
°C
App
Temp
°C
Dew
Point
°C
Rel
Hum
%
Delta-T
°C
Wind Press
QNH
hPa
Press
MSL
hPa
Rain since
9am
mm
Dir  Spd
km/h
Gust
km/h
Spd
kts
Gust
kts
23/11:38pm 17.8 19.3 17.5 98 0.2 NNE 6 7 3 4 1009.2 1008.9 12.4
23/11:30pm 17.8 19.3 17.5 98 0.2 NNE 6 7 3 4 1009.1 1008.8 11.8
23/11:00pm 17.8 18.6 17.3 97 0.3 NNE 9 11 5 6 1009.4 1009.1 10.8
23/10:30pm 17.8 17.8 17.3 97 0.3 NE 13 17 7 9 1009.5 1009.2 9.4
23/10:00pm 17.7 17.8 17.5 99 0.1 NE 13 17 7 9 1009.9 1009.5 8.8
23/09:58pm 17.8 17.8 17.3 97 0.3 NNE 13 17 7 9 1009.8 1009.4 8.6
23/09:43pm 17.8 19.1 17.5 98 0.2 NNE 7 11 4 6 1010.3 1009.9 7.8
23/09:30pm 17.8 20.4 17.5 98 0.2 CALM 0 0 0 0 1010.3 1009.9 7.2
23/09:00pm 18.0 19.8 17.5 97 0.3 E 4 7 2 4 1010.5 1010.1 6.8
23/08:52pm 18.0 19.4 17.7 98 0.2 E 7 9 4 5 1010.4 1010.0 6.8
23/08:43pm 18.0 19.4 17.7 98 0.2 NE 7 11 4 6 1010.5 1010.1 6.6
23/08:40pm 18.0 19.0 17.7 98 0.2 N 9 11 5 6 1010.7 1010.3 6.4
23/08:30pm 18.0 20.3 17.7 98 0.2 NNW 2 11 1 6 1010.9 1010.5 6.2
23/08:04pm 18.2 19.5 17.5 96 0.4 SSW 7 9 4 5 1010.3 1009.9 2.0
23/08:00pm 18.2 19.4 17.4 95 0.5 S 7 9 4 5 1010.2 1009.8 1.6
23/07:30pm 18.2 19.1 17.5 96 0.4 ESE 9 11 5 6 1009.4 1009.1 0.8
23/07:00pm 18.4 19.6 17.3 93 0.7 S 7 9 4 5 1009.2 1008.9 0.8
23/06:30pm 18.4 19.2 17.4 94 0.6 ESE 9 11 5 6 1008.8 1008.4 0.8
23/06:00pm 18.6 19.8 17.3 92 0.8 SE 7 9 4 5 1008.8 1008.4 0.8
23/05:30pm 18.7 19.5 17.4 92 0.8 S 9 13 5 7 1008.7 1008.3 0.8
23/05:00pm 18.9 19.5 17.6 92 0.8 SSE 11 15 6 8 1008.5 1008.1 0.8
23/04:30pm 19.0 19.2 17.7 92 0.8 SSW 13 17 7 9 1008.5 1008.1 0.8
23/04:00pm 19.0 18.9 17.9 93 0.7 SSW 15 20 8 11 1008.6 1008.2 0.8
23/03:31pm 19.2 18.7 17.7 91 0.9 SSW 17 20 9 11 1008.8 1008.4 0.6
23/03:30pm 19.2 18.7 17.7 91 0.9 SSW 17 20 9 11 1008.8 1008.4 0.6
23/03:14pm 19.3 18.8 17.9 92 0.9 SSW 17 20 9 11 1008.9 1008.6 0.6
23/03:00pm 19.7 19.6 17.9 89 1.1 SSW 15 22 8 12 1009.1 1008.8 0.6
23/02:30pm 19.5 18.6 17.7 89 1.1 SW 19 26 10 14 1009.0 1008.7 0.6
23/02:00pm 19.5 19.0 17.9 90 1.0 SW 17 24 9 13 1009.3 1009.0 0.6
23/01:30pm 19.5 18.7 17.9 90 1.0 SW 19 26 10 14 1010.0 1009.6 0.6
23/01:00pm 20.9 21.6 18.0 83 1.8 N 11 17 6 9 1009.7 1009.3 0.6
23/12:30pm 20.8 21.1 17.9 83 1.8 NE 13 17 7 9 1009.8 1009.4 0.6
23/12:00pm 20.4 20.2 17.5 83 1.8 ENE 15 19 8 10 1010.1 1009.7 0.6
23/11:30am 19.4 18.8 17.5 89 1.2 ENE 17 20 9 11 1010.5 1010.1 0.6
23/11:00am 19.0 18.5 17.7 92 0.8 E 17 20 9 11 1011.0 1010.6 0.6
23/10:30am 18.1 17.4 17.3 95 0.5 E 17 20 9 11 1011.6 1011.2 0.6
23/10:00am 17.8 18.5 17.0 95 0.5 ESE 9 13 5 7 1012.3 1011.9 0.4
23/09:30am 17.6 18.8 16.8 95 0.5 E 6 9 3 5 1012.4 1012.0 0.4
23/09:00am 17.4 18.0 16.7 96 0.4 SSE 9 11 5 6 1012.3 1011.9 1.6
23/08:30am 17.2 17.7 16.5 96 0.4 S 9 11 5 6 1012.3 1011.9 1.4
23/08:00am 17.0 17.7 16.2 95 0.5 S 7 11 4 6 1012.3 1011.9 1.4
23/07:30am 16.8 17.1 16.1 96 0.4 S 9 11 5 6 1012.0 1011.6 1.2
23/07:00am 17.0 16.5 16.0 94 0.6 WSW 13 17 7 9 1012.3 1011.9 0.4
23/06:30am 17.2 16.9 15.5 90 1.0 ESE 11 13 6 7 1011.2 1010.8 0.0
23/06:00am 17.0 16.4 15.6 91 0.8 ESE 13 15 7 8 1010.5 1010.1 0.0
23/05:30am 16.9 16.6 15.5 91 0.8 SE 11 15 6 8 1010.2 1009.8 0.0
23/05:00am 16.8 16.9 15.4 91 0.8 SE 9 13 5 7 1010.1 1009.7 0.0
23/04:30am 16.7 16.8 15.5 93 0.7 SE 9 11 5 6 1010.0 1009.6 0.0
23/04:00am 16.7 16.9 15.7 94 0.6 SSE 9 9 5 5 1010.3 1009.9 0.0
23/03:30am 16.5 18.4 15.7 95 0.5 CALM 0 2 0 1 1010.3 1009.9 0.0
23/03:00am 16.3 18.0 15.3 94 0.6 CALM 0 2 0 1 1010.4 1010.0 0.0
23/02:30am 16.7 17.3 15.2 91 0.9 SE 6 9 3 5 1010.5 1010.1 0.0
23/02:00am 17.0 16.1 14.9 87 1.2 E 13 17 7 9 1010.6 1010.2 0.0
23/01:30am 16.4 14.8 15.0 91 0.8 E 17 20 9 11 1011.2 1010.8 0.0
23/01:00am 16.3 15.3 14.7 90 0.9 ESE 13 15 7 8 1011.6 1011.2 0.0
23/12:30am 16.3 15.8 14.9 91 0.8 ESE 11 13 6 7 1011.9 1011.5 0.0
23/12:00am 16.3 16.7 14.7 90 0.9 E 6 7 3 4 1012.2 1011.8 0.0
 
Date/Time
EST
Temp
°C
App
Temp
°C
Dew
Point
°C
Rel
Hum
%
Delta-T
°C
Wind Press
QNH
hPa
Press
MSL
hPa
Rain since
9am
mm
Dir  Spd
km/h
Gust
km/h
Spd
kts
Gust
kts
22/11:30pm 16.2 15.6 14.6 90 0.9 SE 11 15 6 8 1012.3 1011.9 0.0
22/11:00pm 16.4 15.5 14.9 91 0.9 SE 13 15 7 8 1012.6 1012.2 0.0
22/10:30pm 16.1 15.5 14.7 91 0.8 ESE 11 13 6 7 1012.7 1012.3 0.0
22/10:00pm 16.5 15.7 15.0 91 0.9 SSE 13 13 7 7 1012.7 1012.3 0.0
22/09:30pm 16.8 16.7 16.0 95 0.5 SE 11 11 6 6 1012.7 1012.3 0.0
22/09:00pm 17.1 17.0 16.1 94 0.6 SE 11 13 6 7 1012.6 1012.2 0.0
22/08:30pm 16.9 16.8 16.1 95 0.5 SE 11 11 6 6 1012.4 1012.0 0.0
22/08:00pm 17.4 17.8 16.4 94 0.6 SE 9 11 5 6 1012.2 1011.8 0.0
22/07:30pm 17.3 17.3 16.3 94 0.6 ESE 11 13 6 7 1012.0 1011.6 0.0
22/07:00pm 18.0 18.5 16.5 91 0.9 ESE 9 9 5 5 1011.8 1011.4 0.0
22/06:30pm 19.2 19.8 16.9 86 1.4 SSE 9 9 5 5 1011.4 1011.0 0.0
22/06:00pm 20.4 21.2 17.2 82 2.0 SE 9 9 5 5 1011.2 1010.8 0.0
22/05:30pm 20.3 21.1 17.2 82 1.9 SSE 9 11 5 6 1011.2 1010.8 0.0
22/05:00pm 20.5 21.4 17.6 83 1.8 E 9 11 5 6 1010.8 1010.4 0.0
22/04:30pm 21.3 22.1 15.8 71 3.3 ESE 6 9 3 5 1010.9 1010.5 0.0
22/04:00pm 21.2 22.0 15.9 72 3.2 SW 6 9 3 5 1011.5 1011.1 0.0
22/03:30pm 21.0 20.9 15.9 72 3.1 SSW 11 13 6 7 1011.4 1011.0 0.0
22/03:00pm 21.1 20.3 16.0 72 3.1 SW 15 19 8 10 1011.6 1011.2 0.0
22/02:30pm 23.1 21.5 12.7 52 6.0 W 13 17 7 9 1011.8 1011.4 0.0
22/02:00pm 22.8 20.6 13.2 54 5.6 W 17 26 9 14 1012.3 1011.9 0.0
22/01:30pm 22.9 20.2 12.9 53 5.8 NW 19 26 10 14 1012.6 1012.2 0.0
22/01:00pm 23.7 21.3 13.7 53 5.9 NNW 19 26 10 14 1012.4 1012.0 0.0
22/12:30pm 24.5 21.9 13.9 51 6.3 NNW 20 28 11 15 1012.4 1012.0 0.0
22/12:00pm 23.8 21.5 13.0 50 6.3 N 17 24 9 13 1012.6 1012.2 0.0
22/11:30am 24.4 20.8 13.1 49 6.6 NNE 24 32 13 17 1012.6 1012.2 0.0
22/11:00am 23.7 19.2 12.6 49 6.4 NNE 28 37 15 20 1012.8 1012.4 0.0
22/10:30am 22.6 18.4 12.5 53 5.8 N 26 35 14 19 1013.2 1012.8 0.0
22/10:00am 21.4 19.0 12.7 57 5.0 NNE 17 24 9 13 1013.5 1013.2 0.0
22/09:30am 21.7 19.3 12.8 57 5.1 NE 17 22 9 12 1013.5 1013.2 0.0
22/09:00am 19.7 18.5 12.7 64 4.0 ENE 11 15 6 8 1013.7 1013.4 0.0
22/08:30am 19.3 18.0 12.6 65 3.8 NE 11 13 6 7 1013.5 1013.2 0.0
22/08:00am 17.5 16.6 11.5 68 3.3 ENE 7 11 4 6 1013.1 1012.7 0.0
22/07:30am 15.2 13.6 11.7 79 1.9 ENE 11 15 6 8 1012.6 1012.2 0.0
22/07:00am 14.1 12.7 10.9 81 1.7 N 9 11 5 6 1013.2 1012.8 0.0
22/06:30am 14.4 13.6 11.0 80 1.8 WNW 6 9 3 5 1013.1 1012.7 0.0
22/06:00am 15.2 14.1 10.5 73 2.5 SSE 7 9 4 5 1012.6 1012.2 0.0

Other Formats:

Comma delimited format used in spreadsheet applications
http://www.bom.gov.au/fwo/IDQ60801/IDQ60801.94346.axf

JavaScript Object Notation format (JSON) in row-major order
http://www.bom.gov.au/fwo/IDQ60801/IDQ60801.94346.json